createdAt,value
2017-08-23T00:00:09.493Z,10.12
2017-08-23T00:01:22.058Z,10.2
2017-08-23T00:02:34.661Z,10.13
2017-08-23T00:03:46.993Z,10.2
2017-08-23T00:04:59.585Z,10.15
2017-08-23T00:06:12.198Z,10.21
2017-08-23T00:07:24.150Z,10.1
2017-08-23T00:08:36.813Z,10.17
2017-08-23T00:09:48.771Z,10.17
2017-08-23T00:11:01.421Z,10.18
2017-08-23T00:12:13.976Z,10.1
2017-08-23T00:13:26.509Z,10.07
2017-08-23T00:14:39.091Z,10.07
2017-08-23T00:15:51.024Z,10.12
2017-08-23T00:17:03.332Z,10.1
2017-08-23T00:18:15.637Z,10.1
2017-08-23T00:19:27.900Z,10.12
2017-08-23T00:20:40.495Z,9.99
2017-08-23T00:21:52.166Z,10.07
2017-08-23T00:23:04.770Z,10
2017-08-23T00:24:17.342Z,9.95
2017-08-23T00:25:29.885Z,10.03
2017-08-23T00:26:42.481Z,9.99
2017-08-23T00:27:54.432Z,9.99
2017-08-23T00:29:06.798Z,9.99
2017-08-23T00:30:19.061Z,9.99
2017-08-23T00:31:31.665Z,9.92
2017-08-23T00:32:44.235Z,9.92
2017-08-23T00:33:56.504Z,9.94
2017-08-23T00:35:08.743Z,9.88
2017-08-23T00:36:20.420Z,9.95
2017-08-23T00:37:33.049Z,9.88
2017-08-23T00:38:45.298Z,9.88
2017-08-23T00:39:57.334Z,9.85
2017-08-23T00:41:09.626Z,9.9
2017-08-23T00:42:21.886Z,9.84
2017-08-23T00:43:34.494Z,9.84
2017-08-23T00:44:47.103Z,9.84
2017-08-23T00:45:59.660Z,9.81
2017-08-23T00:47:12.234Z,9.8
2017-08-23T00:48:24.864Z,9.76
2017-08-23T00:49:37.476Z,9.69
2017-08-23T00:50:50.040Z,9.76
2017-08-23T00:52:02.641Z,9.77
2017-08-23T00:53:14.264Z,9.8
2017-08-23T00:54:26.833Z,9.67
2017-08-23T00:55:39.387Z,9.8
2017-08-23T00:56:51.423Z,9.73
2017-08-23T00:58:04.016Z,9.73
2017-08-23T00:59:16.598Z,9.7
2017-08-23T01:00:29.183Z,9.74
2017-08-23T01:01:41.483Z,9.76
2017-08-23T01:02:54.108Z,9.81
2017-08-23T01:04:06.663Z,9.73
2017-08-23T01:05:19.209Z,9.72
2017-08-23T01:06:31.730Z,9.73
2017-08-23T01:07:44.358Z,9.7
2017-08-23T01:08:56.920Z,9.69
2017-08-23T01:10:09.230Z,9.74
2017-08-23T01:11:21.787Z,9.69
2017-08-23T01:12:34.114Z,9.73
2017-08-23T01:13:46.704Z,9.7
2017-08-23T01:14:59.281Z,9.74
2017-08-23T01:16:11.580Z,9.7
2017-08-23T01:17:24.166Z,9.69
2017-08-23T01:18:36.455Z,9.77
2017-08-23T01:19:49.075Z,9.73
2017-08-23T01:21:01.411Z,9.7
2017-08-23T01:22:13.936Z,9.66
2017-08-23T01:23:26.557Z,9.62
2017-08-23T01:24:39.141Z,9.66
2017-08-23T01:25:51.760Z,9.64
2017-08-23T01:27:04.387Z,9.56
2017-08-23T01:28:16.644Z,9.66
2017-08-23T01:29:29.228Z,9.63
2017-08-23T01:30:41.230Z,9.58
2017-08-23T01:31:53.249Z,9.63
2017-08-23T01:33:05.550Z,9.58
2017-08-23T01:34:17.840Z,9.64
2017-08-23T01:35:30.482Z,9.49
2017-08-23T01:36:42.755Z,9.54
2017-08-23T01:37:55.306Z,9.52
2017-08-23T01:39:08.071Z,9.51
2017-08-23T01:40:20.366Z,9.48
2017-08-23T01:41:32.611Z,9.47
2017-08-23T01:42:45.218Z,9.52
2017-08-23T01:43:57.206Z,9.47
2017-08-23T01:45:09.480Z,9.47
2017-08-23T01:46:22.124Z,9.51
2017-08-23T01:47:34.697Z,9.45
2017-08-23T01:48:46.684Z,9.48
2017-08-23T01:49:59.280Z,9.45
2017-08-23T01:51:11.869Z,9.49
2017-08-23T01:52:24.472Z,9.3
2017-08-23T01:53:37.068Z,9.34
2017-08-23T01:54:49.342Z,9.47
2017-08-23T01:56:01.637Z,9.31
2017-08-23T01:57:13.917Z,9.34
2017-08-23T01:58:26.201Z,9.3
2017-08-23T01:59:38.782Z,9.36
2017-08-23T02:00:50.772Z,9.33
2017-08-23T02:02:03.071Z,9.34
2017-08-23T02:03:15.080Z,9.29
2017-08-23T02:04:27.657Z,9.31
2017-08-23T02:05:40.251Z,9.29
2017-08-23T02:06:52.572Z,9.29
2017-08-23T02:08:04.882Z,9.36
2017-08-23T02:09:17.162Z,9.29
2017-08-23T02:10:29.384Z,9.29
2017-08-23T02:11:41.919Z,9.33
2017-08-23T02:12:54.509Z,9.27
2017-08-23T02:14:06.766Z,9.22
2017-08-23T02:15:18.774Z,9.24
2017-08-23T02:16:31.335Z,9.19
2017-08-23T02:17:43.872Z,9.27
2017-08-23T02:18:56.454Z,9.16
2017-08-23T02:20:08.770Z,9.3
2017-08-23T02:21:21.378Z,9.19
2017-08-23T02:22:33.676Z,9.21
2017-08-23T02:23:46.361Z,9.19
2017-08-23T02:24:58.703Z,9.15
2017-08-23T02:26:11.005Z,9.18
2017-08-23T02:27:23.619Z,9.15
2017-08-23T02:28:36.204Z,9.18
2017-08-23T02:29:48.804Z,9.18
2017-08-23T02:31:01.375Z,9.15
2017-08-23T02:32:13.976Z,9.09
2017-08-23T02:33:26.582Z,9.22
2017-08-23T02:34:38.598Z,9.15
2017-08-23T02:35:50.625Z,9.15
2017-08-23T02:37:03.268Z,9.11
2017-08-23T02:38:15.857Z,9.03
2017-08-23T02:39:27.814Z,9.13
2017-08-23T02:40:39.845Z,9.15
2017-08-23T02:41:52.454Z,9.19
2017-08-23T02:43:05.071Z,9.15
2017-08-23T02:44:17.758Z,9.11
2017-08-23T02:45:30.028Z,9.15
2017-08-23T02:46:42.019Z,9.12
2017-08-23T02:47:54.588Z,9.15
2017-08-23T02:49:06.890Z,9.12
2017-08-23T02:50:19.485Z,9.15
2017-08-23T02:51:32.100Z,9.15
2017-08-23T02:52:44.712Z,9.13
2017-08-23T02:53:57.049Z,9.13
2017-08-23T02:55:09.646Z,9.05
2017-08-23T02:56:22.240Z,9.08
2017-08-23T02:57:34.880Z,9.11
2017-08-23T02:58:46.893Z,9.08
2017-08-23T02:59:59.431Z,9.05
2017-08-23T03:01:12.003Z,9
2017-08-23T03:02:24.605Z,8.99
2017-08-23T03:03:37.232Z,8.97
2017-08-23T03:04:49.862Z,8.97
2017-08-23T03:06:01.505Z,8.99
2017-08-23T03:07:14.070Z,9
2017-08-23T03:08:26.064Z,8.99
2017-08-23T03:09:38.649Z,9.05
2017-08-23T03:10:51.231Z,8.93
2017-08-23T03:12:03.197Z,8.95
2017-08-23T03:13:15.511Z,8.87
2017-08-23T03:14:28.126Z,8.96
2017-08-23T03:15:40.357Z,8.99
2017-08-23T03:16:52.052Z,8.95
2017-08-23T03:18:04.680Z,8.95
2017-08-23T03:19:17.232Z,9.02
2017-08-23T03:20:29.520Z,8.93
2017-08-23T03:21:42.143Z,8.96
2017-08-23T03:22:54.451Z,8.97
2017-08-23T03:24:07.050Z,8.92
2017-08-23T03:25:19.586Z,9
2017-08-23T03:26:32.108Z,9
2017-08-23T03:27:44.777Z,9
2017-08-23T03:28:57.285Z,9
2017-08-23T03:30:09.892Z,8.99
2017-08-23T03:31:22.215Z,8.95
2017-08-23T03:32:34.803Z,9.08
2017-08-23T03:33:47.459Z,8.96
2017-08-23T03:34:59.728Z,9.03
2017-08-23T03:36:12.283Z,9.02
2017-08-23T03:37:24.520Z,8.99
2017-08-23T03:38:37.288Z,9.08
2017-08-23T03:39:49.891Z,9.13
2017-08-23T03:41:02.583Z,9.18
2017-08-23T03:42:14.853Z,9.13
2017-08-23T03:43:27.507Z,9.19
2017-08-23T03:44:39.818Z,9.15
2017-08-23T03:45:52.363Z,9.16
2017-08-23T03:47:04.597Z,9.18
2017-08-23T03:48:17.177Z,9.31
2017-08-23T03:49:29.478Z,9.26
2017-08-23T03:50:42.063Z,9.34
2017-08-23T03:51:54.364Z,9.36
2017-08-23T03:53:06.937Z,9.31
2017-08-23T03:54:19.549Z,9.33
2017-08-23T03:55:31.831Z,9.39
2017-08-23T03:56:44.440Z,9.31
2017-08-23T03:57:56.407Z,9.4
2017-08-23T03:59:08.982Z,9.36
2017-08-23T04:00:21.296Z,9.3
2017-08-23T04:01:33.287Z,9.34
2017-08-23T04:02:45.357Z,9.34
2017-08-23T04:03:57.886Z,9.44
2017-08-23T04:05:10.530Z,9.34
2017-08-23T04:06:23.138Z,9.34
2017-08-23T04:07:35.439Z,9.37
2017-08-23T04:08:47.363Z,9.3
2017-08-23T04:09:59.654Z,9.34
2017-08-23T04:11:11.936Z,9.34
2017-08-23T04:12:24.619Z,9.34
2017-08-23T04:13:37.187Z,9.31
2017-08-23T04:14:48.783Z,9.33
2017-08-23T04:16:01.340Z,9.37
2017-08-23T04:17:13.972Z,9.34
2017-08-23T04:18:26.562Z,9.36
2017-08-23T04:19:39.146Z,9.4
2017-08-23T04:20:51.087Z,9.37
2017-08-23T04:22:03.698Z,9.3
2017-08-23T04:23:16.269Z,9.29
2017-08-23T04:24:28.884Z,9.31
2017-08-23T04:25:41.244Z,9.37
2017-08-23T04:26:53.499Z,9.3
2017-08-23T04:28:05.760Z,9.36
2017-08-23T04:29:18.333Z,9.39
2017-08-23T04:30:30.612Z,9.37
2017-08-23T04:31:43.214Z,9.33
2017-08-23T04:32:55.525Z,9.29
2017-08-23T04:34:08.079Z,9.31
2017-08-23T04:35:19.783Z,9.47
2017-08-23T04:36:32.316Z,9.31
2017-08-23T04:37:44.643Z,9.36
2017-08-23T04:38:56.932Z,9.48
2017-08-23T04:40:09.570Z,9.52
2017-08-23T04:41:21.605Z,9.51
2017-08-23T04:42:34.174Z,9.52
2017-08-23T04:43:46.485Z,9.48
2017-08-23T04:44:59.066Z,9.51
2017-08-23T04:46:11.694Z,9.56
2017-08-23T04:47:24.314Z,9.62
2017-08-23T04:48:36.867Z,9.66
2017-08-23T04:49:49.123Z,9.64
2017-08-23T04:51:01.702Z,9.73
2017-08-23T04:52:14.299Z,9.69
2017-08-23T04:53:26.835Z,9.77
2017-08-23T04:54:39.407Z,9.74
2017-08-23T04:55:52.021Z,9.77
2017-08-23T04:57:04.609Z,9.74
2017-08-23T04:58:16.933Z,9.9
2017-08-23T04:59:29.279Z,9.91
2017-08-23T05:00:41.884Z,9.92
2017-08-23T05:01:54.165Z,9.92
2017-08-23T05:03:06.795Z,9.91
2017-08-23T05:04:19.446Z,9.99
2017-08-23T05:05:31.961Z,9.97
2017-08-23T05:06:44.576Z,9.97
2017-08-23T05:07:56.819Z,9.97
2017-08-23T05:09:09.099Z,10.12
2017-08-23T05:10:21.100Z,10.15
2017-08-23T05:11:33.726Z,10.18
2017-08-23T05:12:46.016Z,10.13
2017-08-23T05:13:58.651Z,10.31
2017-08-23T05:15:11.251Z,10.28
2017-08-23T05:16:23.603Z,10.27
2017-08-23T05:17:35.867Z,10.38
2017-08-23T05:18:48.126Z,10.33
2017-08-23T05:20:00.700Z,10.45
2017-08-23T05:21:13.521Z,10.51
2017-08-23T05:22:25.864Z,10.51
2017-08-23T05:23:38.167Z,10.61
2017-08-23T05:24:50.454Z,10.58
2017-08-23T05:26:02.998Z,10.72
2017-08-23T05:27:15.301Z,10.79
2017-08-23T05:28:27.528Z,10.83
2017-08-23T05:29:40.213Z,10.79
2017-08-23T05:30:52.476Z,10.97
2017-08-23T05:32:04.746Z,11.1
2017-08-23T05:33:17.302Z,11
2017-08-23T05:34:29.930Z,11.12
2017-08-23T05:35:42.195Z,11.15
2017-08-23T05:36:54.142Z,11.23
2017-08-23T05:38:06.390Z,11.26
2017-08-23T05:39:18.935Z,11.35
2017-08-23T05:40:31.265Z,11.4
2017-08-23T05:41:43.200Z,11.52
2017-08-23T05:42:55.764Z,11.53
2017-08-23T05:44:08.087Z,11.6
2017-08-23T05:45:20.629Z,11.68
2017-08-23T05:46:33.219Z,11.71
2017-08-23T05:47:45.814Z,11.78
2017-08-23T05:48:58.093Z,11.85
2017-08-23T05:50:10.081Z,11.89
2017-08-23T05:51:22.433Z,11.88
2017-08-23T05:52:35.004Z,11.99
2017-08-23T05:53:47.568Z,12.1
2017-08-23T05:55:00.152Z,12.15
2017-08-23T05:56:12.166Z,12.25
2017-08-23T05:57:24.716Z,12.29
2017-08-23T05:58:37.334Z,12.3
2017-08-23T05:59:49.873Z,12.43
2017-08-23T06:01:02.498Z,12.43
2017-08-23T06:02:15.072Z,12.53
2017-08-23T06:03:27.072Z,12.7
2017-08-23T06:04:39.915Z,12.72
2017-08-23T06:05:52.488Z,12.72
2017-08-23T06:07:04.785Z,12.81
2017-08-23T06:08:17.355Z,12.73
2017-08-23T06:09:29.967Z,12.84
2017-08-23T06:10:42.617Z,12.94
2017-08-23T06:11:55.191Z,12.99
2017-08-23T06:13:07.809Z,12.95
2017-08-23T06:14:20.433Z,13.13
2017-08-23T06:15:33.077Z,13.2
2017-08-23T06:16:45.410Z,13.12
2017-08-23T06:17:57.946Z,13.26
2017-08-23T06:19:10.608Z,13.3
2017-08-23T06:20:22.946Z,13.42
2017-08-23T06:21:34.962Z,13.47
2017-08-23T06:22:47.562Z,13.5
2017-08-23T06:23:59.823Z,13.61
2017-08-23T06:25:12.136Z,13.71
2017-08-23T06:26:24.688Z,13.71
2017-08-23T06:27:37.046Z,13.8
2017-08-23T06:28:49.375Z,13.86
2017-08-23T06:30:01.650Z,13.97
2017-08-23T06:31:13.890Z,13.98
2017-08-23T06:32:25.860Z,14.08
2017-08-23T06:33:38.492Z,14.2
2017-08-23T06:34:50.803Z,14.12
2017-08-23T06:36:03.032Z,14.28
2017-08-23T06:37:15.600Z,14.55
2017-08-23T06:38:27.881Z,14.63
2017-08-23T06:39:39.821Z,14.68
2017-08-23T06:40:52.068Z,14.74
2017-08-23T06:42:04.085Z,14.96
2017-08-23T06:43:16.348Z,14.96
2017-08-23T06:44:28.635Z,15.02
2017-08-23T06:45:41.263Z,15.19
2017-08-23T06:46:53.901Z,15.41
2017-08-23T06:48:06.456Z,15.72
2017-08-23T06:49:19.042Z,16.03
2017-08-23T06:50:31.676Z,16.28
2017-08-23T06:51:44.033Z,16.61
2017-08-23T06:52:56.605Z,16.87
2017-08-23T06:54:09.186Z,17.09
2017-08-23T06:55:21.406Z,17.34
2017-08-23T06:56:33.946Z,17.5
2017-08-23T06:57:46.537Z,17.82
2017-08-23T06:58:59.401Z,18.09
2017-08-23T07:00:11.710Z,18.28
2017-08-23T07:01:23.982Z,18.53
2017-08-23T07:02:36.563Z,18.82
2017-08-23T07:03:49.204Z,19.09
2017-08-23T07:05:01.494Z,19.3
2017-08-23T07:06:13.806Z,19.48
2017-08-23T07:07:26.390Z,19.7
2017-08-23T07:08:38.142Z,20.03
2017-08-23T07:09:50.832Z,20.12
2017-08-23T07:11:03.098Z,20.42
2017-08-23T07:12:15.642Z,20.64
2017-08-23T07:13:27.940Z,21.05
2017-08-23T07:14:40.512Z,21.22
2017-08-23T07:15:53.127Z,21.33
2017-08-23T07:17:05.162Z,21.5
2017-08-23T07:18:17.138Z,21.74
2017-08-23T07:19:29.727Z,21.85
2017-08-23T07:20:42.329Z,22
2017-08-23T07:21:54.935Z,22.06
2017-08-23T07:23:07.289Z,21.99
2017-08-23T07:24:19.568Z,22.08
2017-08-23T07:25:31.850Z,22.08
2017-08-23T07:26:44.163Z,22.06
2017-08-23T07:27:56.489Z,22.18
2017-08-23T07:29:08.786Z,22.22
2017-08-23T07:30:21.053Z,22.36
2017-08-23T07:31:33.066Z,22.44
2017-08-23T07:32:45.675Z,22.56
2017-08-23T07:33:57.997Z,22.76
2017-08-23T07:35:09.981Z,22.95
2017-08-23T07:36:22.036Z,23.04
2017-08-23T07:37:34.275Z,23.2
2017-08-23T07:38:46.539Z,23.21
2017-08-23T07:39:58.918Z,23.4
2017-08-23T07:41:11.212Z,23.49
2017-08-23T07:42:23.511Z,23.64
2017-08-23T07:43:36.107Z,23.73
2017-08-23T07:44:48.453Z,23.86
2017-08-23T07:46:01.020Z,24.07
2017-08-23T07:47:13.267Z,24.16
2017-08-23T07:48:25.539Z,24.24
2017-08-23T07:49:37.830Z,24.38
2017-08-23T07:50:49.781Z,24.47
2017-08-23T07:52:02.129Z,24.62
2017-08-23T07:53:14.786Z,24.62
2017-08-23T07:54:27.367Z,24.74
2017-08-23T07:55:39.913Z,24.63
2017-08-23T07:56:52.480Z,24.68
2017-08-23T07:58:04.453Z,24.79
2017-08-23T07:59:16.473Z,24.78
2017-08-23T08:00:28.816Z,24.99
2017-08-23T08:01:40.773Z,24.93
2017-08-23T08:02:53.065Z,24.97
2017-08-23T08:04:05.323Z,25.04
2017-08-23T08:05:17.957Z,25.01
2017-08-23T08:06:30.271Z,25.09
2017-08-23T08:07:42.876Z,24.77
2017-08-23T08:08:55.205Z,24.61
2017-08-23T08:10:07.514Z,24.44
2017-08-23T08:11:19.882Z,24.26
2017-08-23T08:12:32.142Z,24
2017-08-23T08:13:44.474Z,23.58
2017-08-23T08:14:57.061Z,23.4
2017-08-23T08:16:09.037Z,23.29
2017-08-23T08:17:21.582Z,22.92
2017-08-23T08:18:33.850Z,22.58
2017-08-23T08:19:46.185Z,22.46
2017-08-23T08:20:58.818Z,22.25
2017-08-23T08:22:11.494Z,22.1
2017-08-23T08:23:23.823Z,21.85
2017-08-23T08:24:36.098Z,21.68
2017-08-23T08:25:48.425Z,21.5
2017-08-23T08:27:00.677Z,21.53
2017-08-23T08:28:12.975Z,21.32
2017-08-23T08:29:25.564Z,21.23
2017-08-23T08:30:37.832Z,21.25
2017-08-23T08:31:50.456Z,21.04
2017-08-23T08:33:02.768Z,20.96
2017-08-23T08:34:14.501Z,20.68
2017-08-23T08:35:26.843Z,20.66
2017-08-23T08:36:39.155Z,20.58
2017-08-23T08:37:51.449Z,20.21
2017-08-23T08:39:04.113Z,20.19
2017-08-23T08:40:16.446Z,20.15
2017-08-23T08:41:28.462Z,20.02
2017-08-23T08:42:40.707Z,19.87
2017-08-23T08:43:52.672Z,19.79
2017-08-23T08:45:04.356Z,19.75
2017-08-23T08:46:16.611Z,19.66
2017-08-23T08:47:28.597Z,19.67
2017-08-23T08:48:40.844Z,19.59
2017-08-23T08:49:53.040Z,19.39
2017-08-23T08:51:05.013Z,19.42
2017-08-23T08:52:17.604Z,19.41
2017-08-23T08:53:29.902Z,19.39
2017-08-23T08:54:42.199Z,19.39
2017-08-23T08:55:54.417Z,19.34
2017-08-23T08:57:06.730Z,19.27
2017-08-23T08:58:19.596Z,19.24
2017-08-23T08:59:31.572Z,19.23
2017-08-23T09:00:43.850Z,19.2
2017-08-23T09:01:56.175Z,19.3
2017-08-23T09:03:08.804Z,19.3
2017-08-23T09:04:21.070Z,19.16
2017-08-23T09:05:33.060Z,19.22
2017-08-23T09:06:45.377Z,19.2
2017-08-23T09:07:57.650Z,19.16
2017-08-23T09:09:10.243Z,19.2
2017-08-23T09:10:22.541Z,19.2
2017-08-23T09:11:35.120Z,19.23
2017-08-23T09:12:47.105Z,19.24
2017-08-23T09:13:59.088Z,19.23
2017-08-23T09:15:11.751Z,19.24
2017-08-23T09:16:24.377Z,19.27
2017-08-23T09:17:36.049Z,19.29
2017-08-23T09:18:48.291Z,19.29
2017-08-23T09:20:00.857Z,19.34
2017-08-23T09:21:13.457Z,19.3
2017-08-23T09:22:26.106Z,19.44
2017-08-23T09:23:38.704Z,19.35
2017-08-23T09:24:51.287Z,19.35
2017-08-23T09:26:03.908Z,19.35
2017-08-23T09:27:16.208Z,19.3
2017-08-23T09:28:28.827Z,19.44
2017-08-23T09:29:41.110Z,19.39
2017-08-23T09:30:53.483Z,19.49
2017-08-23T09:32:06.038Z,19.44
2017-08-23T09:33:18.019Z,19.44
2017-08-23T09:34:30.625Z,19.53
2017-08-23T09:35:43.283Z,19.48
2017-08-23T09:36:55.255Z,19.56
2017-08-23T09:38:07.258Z,19.6
2017-08-23T09:39:19.844Z,19.55
2017-08-23T09:40:32.434Z,19.55
2017-08-23T09:41:44.394Z,19.48
2017-08-23T09:42:56.604Z,19.53
2017-08-23T09:44:09.187Z,19.52
2017-08-23T09:45:21.445Z,19.42
2017-08-23T09:46:34.086Z,19.39
2017-08-23T09:47:46.691Z,19.56
2017-08-23T09:48:58.688Z,19.47
2017-08-23T09:50:10.945Z,19.57
2017-08-23T09:51:22.916Z,19.62
2017-08-23T09:52:35.523Z,19.67
2017-08-23T09:53:48.179Z,19.72
2017-08-23T09:55:00.497Z,19.82
2017-08-23T09:56:13.053Z,19.87
2017-08-23T09:57:25.597Z,19.93
2017-08-23T09:58:38.203Z,20.04
2017-08-23T09:59:50.829Z,20.11
2017-08-23T10:01:03.518Z,20.26
2017-08-23T10:02:16.121Z,20.33
2017-08-23T10:03:28.111Z,20.34
2017-08-23T10:04:40.368Z,20.53
2017-08-23T10:05:53.007Z,20.6
2017-08-23T10:07:04.961Z,20.7
2017-08-23T10:08:17.519Z,20.78
2017-08-23T10:09:29.863Z,20.89
2017-08-23T10:10:42.451Z,21
2017-08-23T10:11:55.000Z,21.19
2017-08-23T10:13:07.267Z,21.28
2017-08-23T10:14:19.901Z,21.28
2017-08-23T10:15:31.259Z,21.35
2017-08-23T10:16:43.900Z,21.56
2017-08-23T10:17:56.521Z,21.56
2017-08-23T10:19:09.124Z,21.63
2017-08-23T10:20:21.121Z,21.65
2017-08-23T10:21:33.762Z,21.77
2017-08-23T10:22:46.122Z,21.8
2017-08-23T10:23:58.086Z,21.85
2017-08-23T10:25:10.675Z,21.74
2017-08-23T10:26:23.256Z,21.94
2017-08-23T10:27:34.960Z,21.92
2017-08-23T10:28:46.981Z,22.03
2017-08-23T10:29:59.195Z,22.1
2017-08-23T10:31:11.823Z,22.33
2017-08-23T10:32:24.428Z,22.51
2017-08-23T10:33:37.005Z,22.56
2017-08-23T10:34:49.015Z,22.62
2017-08-23T10:36:01.310Z,22.7
2017-08-23T10:37:13.643Z,22.68
2017-08-23T10:38:25.999Z,22.76
2017-08-23T10:39:37.655Z,22.68
2017-08-23T10:40:49.663Z,22.71
2017-08-23T10:42:01.323Z,22.68
2017-08-23T10:43:13.979Z,22.65
2017-08-23T10:44:26.301Z,22.65
2017-08-23T10:45:38.245Z,22.52
2017-08-23T10:46:50.598Z,22.51
2017-08-23T10:48:02.545Z,22.37
2017-08-23T10:49:14.510Z,22.36
2017-08-23T10:50:26.804Z,22.26
2017-08-23T10:51:39.099Z,22.25
2017-08-23T10:52:51.720Z,22.26
2017-08-23T10:54:03.989Z,22.22
2017-08-23T10:55:16.253Z,22.25
2017-08-23T10:56:28.235Z,22.21
2017-08-23T10:57:40.795Z,22.28
2017-08-23T10:58:52.780Z,22.38
2017-08-23T11:00:05.037Z,22.56
2017-08-23T11:01:17.696Z,22.77
2017-08-23T11:02:30.314Z,23.06
2017-08-23T11:03:42.930Z,23.26
2017-08-23T11:04:55.538Z,23.66
2017-08-23T11:06:07.825Z,24.13
2017-08-23T11:07:20.447Z,24.44
2017-08-23T11:08:33.041Z,24.94
2017-08-23T11:09:45.660Z,25.36
2017-08-23T11:10:57.965Z,25.7
2017-08-23T11:12:09.934Z,25.99
2017-08-23T11:13:21.638Z,26.33
2017-08-23T11:14:34.222Z,26.55
2017-08-23T11:15:46.269Z,26.89
2017-08-23T11:16:58.591Z,27.22
2017-08-23T11:18:11.178Z,27.53
2017-08-23T11:19:23.477Z,27.86
2017-08-23T11:20:36.137Z,28.12
2017-08-23T11:21:48.728Z,28.52
2017-08-23T11:23:00.764Z,28.83
2017-08-23T11:24:13.038Z,29.12
2017-08-23T11:25:25.070Z,29.44
2017-08-23T11:26:37.647Z,29.64
2017-08-23T11:27:50.293Z,29.76
2017-08-23T11:29:02.901Z,30.01
2017-08-23T11:30:15.212Z,30.17
2017-08-23T11:31:27.219Z,30.39
2017-08-23T11:32:39.799Z,30.63
2017-08-23T11:33:52.075Z,30.92
2017-08-23T11:35:04.669Z,31.3
2017-08-23T11:36:17.313Z,31.55
2017-08-23T11:37:29.660Z,31.72
2017-08-23T11:38:41.667Z,31.9
2017-08-23T11:39:54.252Z,32.29
2017-08-23T11:41:06.856Z,32.45
2017-08-23T11:42:19.184Z,32.73
2017-08-23T11:43:31.810Z,33.03
2017-08-23T11:44:43.837Z,33.35
2017-08-23T11:45:56.120Z,33.57
2017-08-23T11:47:08.154Z,33.82
2017-08-23T11:48:20.121Z,34.04
2017-08-23T11:49:32.427Z,34.37
2017-08-23T11:50:44.398Z,34.56
2017-08-23T11:51:56.686Z,34.83
2017-08-23T11:53:09.053Z,35
2017-08-23T11:54:21.097Z,35.18
2017-08-23T11:55:33.717Z,35.27
2017-08-23T11:56:46.085Z,35.32
2017-08-23T11:57:58.052Z,35.25
2017-08-23T11:59:10.430Z,35.22
2017-08-23T12:00:23.131Z,35.27
2017-08-23T12:01:35.757Z,35.26
2017-08-23T12:02:48.458Z,35.22
2017-08-23T12:04:00.462Z,35.12
2017-08-23T12:05:12.782Z,35.34
2017-08-23T12:06:25.123Z,35.37
2017-08-23T12:07:37.474Z,35.35
2017-08-23T12:08:49.820Z,35.34
2017-08-23T12:10:01.201Z,35.1
2017-08-23T12:11:12.914Z,35.3
2017-08-23T12:12:25.175Z,35.42
2017-08-23T12:13:37.771Z,35.45
2017-08-23T12:14:50.374Z,35.47
2017-08-23T12:16:03.049Z,35.41
2017-08-23T12:17:15.127Z,35.38
2017-08-23T12:18:27.417Z,35.15
2017-08-23T12:19:40.049Z,35.05
2017-08-23T12:20:52.662Z,35.1
2017-08-23T12:22:04.975Z,35.12
2017-08-23T12:23:17.346Z,34.96
2017-08-23T12:24:29.743Z,34.86
2017-08-23T12:25:42.027Z,34.85
2017-08-23T12:26:54.609Z,34.85
2017-08-23T12:28:06.905Z,34.81
2017-08-23T12:29:19.195Z,34.62
2017-08-23T12:30:31.830Z,34.51
2017-08-23T12:31:44.472Z,34.06
2017-08-23T12:32:56.760Z,33.76
2017-08-23T12:34:09.335Z,33.58
2017-08-23T12:35:21.657Z,33.38
2017-08-23T12:36:33.659Z,33.35
2017-08-23T12:37:45.645Z,33.22
2017-08-23T12:38:58.242Z,33.23
2017-08-23T12:40:10.846Z,33.15
2017-08-23T12:41:23.171Z,33.17
2017-08-23T12:42:35.423Z,33
2017-08-23T12:43:46.799Z,32.94
2017-08-23T12:44:59.115Z,32.88
2017-08-23T12:46:11.671Z,32.72
2017-08-23T12:47:23.998Z,32.37
2017-08-23T12:48:35.975Z,32.12
2017-08-23T12:49:47.956Z,32.01
2017-08-23T12:51:00.572Z,31.69
2017-08-23T12:52:12.867Z,31.39
2017-08-23T12:53:25.487Z,31.1
2017-08-23T12:54:37.130Z,30.85
2017-08-23T12:55:49.729Z,30.44
2017-08-23T12:57:01.972Z,30.14
2017-08-23T12:58:14.540Z,29.84
2017-08-23T12:59:27.179Z,29.57
2017-08-23T13:00:39.509Z,29.32
2017-08-23T13:01:51.903Z,29.02
2017-08-23T13:03:04.192Z,28.74
2017-08-23T13:04:16.770Z,28.57
2017-08-23T13:05:29.131Z,28.31
2017-08-23T13:06:41.130Z,28.08
2017-08-23T13:07:53.124Z,27.85
2017-08-23T13:09:05.429Z,27.67
2017-08-23T13:10:18.022Z,27.48
2017-08-23T13:11:30.614Z,27.26
2017-08-23T13:12:43.191Z,27.03
2017-08-23T13:13:55.486Z,26.78
2017-08-23T13:15:08.088Z,26.52
2017-08-23T13:16:20.150Z,26.29
2017-08-23T13:17:32.423Z,26.08
2017-08-23T13:18:44.401Z,25.85
2017-08-23T13:19:56.708Z,25.62
2017-08-23T13:21:08.688Z,25.48
2017-08-23T13:22:21.267Z,25.25
2017-08-23T13:23:33.636Z,25.09
2017-08-23T13:24:46.249Z,24.84
2017-08-23T13:25:58.228Z,24.71
2017-08-23T13:27:10.594Z,24.58
2017-08-23T13:28:23.001Z,24.41
2017-08-23T13:29:35.286Z,24.16
2017-08-23T13:30:47.918Z,24.07
2017-08-23T13:32:00.537Z,23.99
2017-08-23T13:33:12.540Z,23.86
2017-08-23T13:34:24.561Z,23.55
2017-08-23T13:35:37.097Z,23.39
2017-08-23T13:36:49.362Z,23.39
2017-08-23T13:38:01.975Z,23.21
2017-08-23T13:39:14.243Z,23.13
2017-08-23T13:40:26.527Z,22.98
2017-08-23T13:41:39.102Z,22.96
2017-08-23T13:42:51.449Z,22.89
2017-08-23T13:44:04.081Z,22.76
2017-08-23T13:45:16.065Z,22.78
2017-08-23T13:46:28.317Z,22.65
2017-08-23T13:47:40.356Z,22.59
2017-08-23T13:48:52.710Z,22.61
2017-08-23T13:50:04.672Z,22.49
2017-08-23T13:51:17.254Z,22.53
2017-08-23T13:52:28.945Z,22.47
2017-08-23T13:53:41.268Z,22.53
2017-08-23T13:54:53.846Z,22.44
2017-08-23T13:56:06.126Z,22.53
2017-08-23T13:57:18.425Z,22.44
2017-08-23T13:58:30.972Z,22.43
2017-08-23T13:59:43.045Z,22.49
2017-08-23T14:00:54.990Z,22.46
2017-08-23T14:02:07.546Z,22.56
2017-08-23T14:03:20.156Z,22.56
2017-08-23T14:04:32.434Z,22.44
2017-08-23T14:05:44.390Z,22.4
2017-08-23T14:06:56.700Z,22.51
2017-08-23T14:08:09.293Z,22.51
2017-08-23T14:09:21.261Z,22.51
2017-08-23T14:10:33.256Z,22.56
2017-08-23T14:11:45.529Z,22.61
2017-08-23T14:12:57.763Z,22.63
2017-08-23T14:14:10.047Z,22.52
2017-08-23T14:15:22.331Z,22.67
2017-08-23T14:16:34.935Z,22.7
2017-08-23T14:17:47.509Z,22.77
2017-08-23T14:18:59.482Z,22.77
2017-08-23T14:20:11.767Z,22.76
2017-08-23T14:21:24.090Z,22.74
2017-08-23T14:22:36.515Z,22.76
2017-08-23T14:23:49.099Z,22.78
2017-08-23T14:25:01.736Z,22.78
2017-08-23T14:26:14.084Z,22.83
2017-08-23T14:27:25.794Z,22.77
2017-08-23T14:28:38.149Z,22.84
2017-08-23T14:29:50.694Z,22.76
2017-08-23T14:31:02.989Z,22.83
2017-08-23T14:32:15.744Z,22.78
2017-08-23T14:33:28.084Z,22.76
2017-08-23T14:34:40.805Z,22.81
2017-08-23T14:35:53.337Z,22.8
2017-08-23T14:37:05.688Z,22.78
2017-08-23T14:38:17.975Z,22.81
2017-08-23T14:39:30.330Z,22.67
2017-08-23T14:40:43.252Z,22.61
2017-08-23T14:41:55.256Z,22.68
2017-08-23T14:43:07.198Z,22.59
2017-08-23T14:44:19.570Z,22.59
2017-08-23T14:45:32.158Z,22.62
2017-08-23T14:46:44.443Z,22.55
2017-08-23T14:47:56.778Z,22.46
2017-08-23T14:49:09.077Z,22.46
2017-08-23T14:50:21.391Z,22.44
2017-08-23T14:51:33.949Z,22.49
2017-08-23T14:52:46.157Z,22.36
2017-08-23T14:53:58.431Z,22.37
2017-08-23T14:55:10.831Z,22.34
2017-08-23T14:56:23.397Z,22.33
2017-08-23T14:57:35.653Z,22.28
2017-08-23T14:58:47.963Z,22.25
2017-08-23T14:59:59.960Z,22.3
2017-08-23T15:01:12.302Z,22.21
2017-08-23T15:02:24.965Z,22.08
2017-08-23T15:03:36.640Z,22.19
2017-08-23T15:04:49.211Z,22.08
2017-08-23T15:06:01.731Z,22.08
2017-08-23T15:07:14.017Z,22.07
2017-08-23T15:08:25.733Z,22.04
2017-08-23T15:09:38.053Z,21.88
2017-08-23T15:10:50.693Z,21.94
2017-08-23T15:12:03.238Z,21.92
2017-08-23T15:13:15.804Z,21.89
2017-08-23T15:14:27.751Z,21.85
2017-08-23T15:15:40.296Z,21.81
2017-08-23T15:16:52.845Z,21.8
2017-08-23T15:18:05.222Z,21.74
2017-08-23T15:19:17.185Z,21.7
2017-08-23T15:20:29.777Z,21.69
2017-08-23T15:21:42.085Z,21.63
2017-08-23T15:22:54.696Z,21.69
2017-08-23T15:24:07.014Z,21.62
2017-08-23T15:25:19.053Z,21.58
2017-08-23T15:26:31.625Z,21.5
2017-08-23T15:27:43.320Z,21.53
2017-08-23T15:28:55.859Z,21.51
2017-08-23T15:30:08.193Z,21.45
2017-08-23T15:31:20.157Z,21.56
2017-08-23T15:32:32.487Z,21.4
2017-08-23T15:33:45.084Z,21.44
2017-08-23T15:34:57.361Z,21.4
2017-08-23T15:36:09.671Z,21.33
2017-08-23T15:37:21.965Z,21.32
2017-08-23T15:38:34.620Z,21.29
2017-08-23T15:39:47.481Z,21.28
2017-08-23T15:40:59.815Z,21.32
2017-08-23T15:42:12.131Z,21.32
2017-08-23T15:43:24.532Z,21.25
2017-08-23T15:44:37.167Z,21.29